Base Aérea Airport
SBAN : rendu visible

Aérodrome :











RETROUVEZ-NOUS SUR...

 
LOGIN :

S'inscrire | Disclaimer

   EN    FR    IT 

 









Légende :    VFR   VFR Marginal   IFR   IFR Intensif   IFR Très Intensif
Visi : 
Plafond : 
>= 8 km
>= 3000ft
5 à 8 km
1000 à 3000 ft
1500m à 5 km
500 à 1000 ft
800 à 1500m
200 à 500 ft
< 800m
< 200 ft
Symboles :   Orages  Brouillard  Fortes neiges  Fortes précipitations  Vent > 20 kt






- Altitude de l'aérodrome : 3731 ft
- Code IATA : APS


SBAN - Base Aérea

DERNIER METAR :
  • 270200Z 15005KT CAVOK 14/04 Q1021

METARs EXPIRÉS :
  • 270100Z 17005KT CAVOK 14/04 Q1021
  • 270000Z 19005KT CAVOK 14/04 Q1020

TAF TAF SBAN
Valide du 27 à 00h jusqu'au 27 à 12h UTC


262100Z 2700/2712 20006KT 8000 FEW030 TN13/2703Z TX24/2711Z
TEMPO 2706/2709 4000 BR BKN006 RMK PEA
FIR SBBS / Amérique du Sud



MET'MAP, la Météo Aéronautique d'un coup d'oeil ! - Copyright ORBIFLY Décembre 2007 - Disclaimer

ORBIFLY MET'MAP TEAM :

Programmation & Développement : Alexandra Zaïnal
Sur une idée originale de : Baudouin d'Aumeries
Assistance à la programmation : Marc-Olivier Méhu
Soutien technique & logistique : Manuel Goepfert

Contact : metmap@orbifly.com




SOURCES & CREDITS :

   NOAA       Earth
Advisory